Time;durP1;ratioP1;P1;durP2;ratioP2;P2;SDS_P1;SDS_P2;PMS_P1;PMS_P2;Temp;Humidity;BMP_temperature;BMP_pressure;BME280_temperature;BME280_humidity;BME280_pressure;Samples;Min_cycle;Max_cycle;Signal;HPM_P1;HPM_P2
2023/04/13 00:00:29;;;;;;;11.32;3.85;;;6.30;99.90;;;;;;5055972;28;20049;-84
2023/04/13 00:02:55;;;;;;;10.18;3.50;;;6.40;99.90;;;;;;5056769;28;20059;-76
2023/04/13 00:05:22;;;;;;;12.82;4.45;;;6.40;99.90;;;;;;5056869;28;20052;-84
2023/04/13 00:07:48;;;;;;;12.80;3.45;;;6.40;99.90;;;;;;5056857;28;20041;-82
2023/04/13 00:10:20;;;;;;;12.88;3.60;;;6.50;99.90;;;;;;5039878;28;20175;-80
2023/04/13 00:12:47;;;;;;;14.43;4.00;;;6.60;99.90;;;;;;5040141;28;20434;-75
2023/04/13 00:15:18;;;;;;;7.22;2.13;;;6.70;99.90;;;;;;5039131;28;20049;-82
2023/04/13 00:17:47;;;;;;;11.10;2.78;;;6.90;99.90;;;;;;5055068;28;20045;-83
2023/04/13 00:20:13;;;;;;;9.00;3.10;;;7.00;99.90;;;;;;5055034;28;20048;-79
2023/04/13 00:22:43;;;;;;;11.25;3.25;;;7.10;99.90;;;;;;5057540;28;20048;-81
2023/04/13 00:25:10;;;;;;;11.07;3.95;;;7.00;99.90;;;;;;5059922;28;20056;-81
2023/04/13 00:27:38;;;;;;;;;;;7.00;99.90;;;;;;5057065;28;20051;-79
2023/04/13 00:30:08;;;;;;;8.60;2.53;;;6.90;99.90;;;;;;5089059;28;19974;-82
2023/04/13 00:32:35;;;;;;;5.70;2.40;;;6.90;99.90;;;;;;5057377;28;20126;-82
2023/04/13 00:35:01;;;;;;;7.13;2.00;;;6.80;99.90;;;;;;5055434;28;20053;-84
2023/04/13 00:37:29;;;;;;;12.32;2.53;;;6.70;99.90;;;;;;5038825;28;20187;-79
2023/04/13 00:39:55;;;;;;;;;;;6.60;99.90;;;;;;5055084;28;20102;-77
2023/04/13 00:42:20;;;;;;;6.15;1.52;;;6.50;99.90;;;;;;5056294;28;19924;-77
2023/04/13 00:44:46;;;;;;;8.55;1.73;;;6.50;99.90;;;;;;5056591;28;20041;-79
2023/04/13 00:47:16;;;;;;;9.73;2.30;;;6.50;99.90;;;;;;5055137;28;20068;-80
2023/04/13 00:49:42;;;;;;;8.25;1.90;;;6.50;99.90;;;;;;5056539;28;20060;-83
2023/04/13 00:52:10;;;;;;;12.98;2.70;;;6.40;99.90;;;;;;5057048;28;20425;-80
2023/04/13 00:54:37;;;;;;;7.10;2.40;;;6.50;99.90;;;;;;5056818;28;20052;-84
2023/04/13 00:57:04;;;;;;;10.38;2.58;;;6.40;99.90;;;;;;5056157;28;20052;-80
2023/04/13 00:59:30;;;;;;;12.18;3.28;;;6.40;99.90;;;;;;5038922;28;20148;-81
2023/04/13 01:01:56;;;;;;;9.43;2.58;;;6.40;99.90;;;;;;5054942;28;20053;-80
2023/04/13 01:04:26;;;;;;;14.00;2.83;;;6.40;99.90;;;;;;5054320;28;20056;-80
2023/04/13 01:07:00;;;;;;;12.60;2.97;;;6.30;99.90;;;;;;5054313;28;20052;-80
2023/04/13 01:10:08;;;;;;;10.77;2.30;;;6.30;99.90;;;;;;5055273;28;20080;-83
2023/04/13 01:12:54;;;;;;;9.32;2.40;;;6.40;99.90;;;;;;5056058;28;20048;-80
2023/04/13 01:15:20;;;;;;;13.60;2.40;;;6.40;99.90;;;;;;5055611;28;20040;-82
2023/04/13 01:17:53;;;;;;;7.75;1.85;;;6.40;99.90;;;;;;5037250;28;20106;-83
2023/04/13 01:20:19;;;;;;;9.65;2.05;;;6.40;99.90;;;;;;5054602;28;20373;-81
2023/04/13 01:22:57;;;;;;;10.40;2.10;;;6.40;99.90;;;;;;5055865;28;20041;-81
2023/04/13 01:26:08;;;;;;;8.75;2.35;;;6.40;99.90;;;;;;5054941;28;20351;-82
2023/04/13 01:28:36;;;;;;;7.30;1.90;;;6.40;99.90;;;;;;5012736;28;20057;-80
2023/04/13 01:31:10;;;;;;;7.28;1.70;;;6.50;99.90;;;;;;5012240;28;20049;-81
2023/04/13 01:33:39;;;;;;;6.50;1.42;;;6.40;99.90;;;;;;5036218;28;20144;-79
2023/04/13 01:36:05;;;;;;;6.00;1.38;;;6.50;99.90;;;;;;5054626;28;20108;-85
2023/04/13 01:38:31;;;;;;;9.47;1.43;;;6.50;99.90;;;;;;5055663;28;20051;-82
2023/04/13 01:40:57;;;;;;;8.23;1.23;;;6.50;99.90;;;;;;5055296;28;20128;-79
2023/04/13 01:43:24;;;;;;;5.57;1.70;;;6.50;99.90;;;;;;5055345;28;20053;-80
2023/04/13 01:46:12;;;;;;;6.35;1.27;;;6.50;99.90;;;;;;5055591;28;20485;-82
2023/04/13 01:48:50;;;;;;;4.15;0.90;;;6.50;99.90;;;;;;5054013;28;20045;-78
2023/04/13 01:51:23;;;;;;;7.85;1.20;;;6.50;99.90;;;;;;5053238;28;20091;-72
2023/04/13 01:54:00;;;;;;;4.65;0.88;;;6.50;99.90;;;;;;5052211;28;20088;-72
2023/04/13 01:56:27;;;;;;;5.00;1.40;;;6.50;99.90;;;;;;5053122;28;20063;-72
2023/04/13 01:58:57;;;;;;;4.78;0.73;;;6.40;99.90;;;;;;5053315;28;20130;-71
2023/04/13 02:01:24;;;;;;;10.45;2.25;;;6.40;99.90;;;;;;5035377;28;20101;-72
2023/04/13 02:03:51;;;;;;;7.15;1.10;;;6.40;99.90;;;;;;5053842;28;20053;-72
2023/04/13 02:06:17;;;;;;;6.90;1.05;;;6.40;99.90;;;;;;5053009;28;20045;-73
2023/04/13 02:08:44;;;;;;;10.07;1.35;;;6.40;99.90;;;;;;5053096;28;20056;-74
2023/04/13 02:11:11;;;;;;;7.03;1.10;;;6.40;99.90;;;;;;5051959;28;20049;-73
2023/04/13 02:13:37;;;;;;;;;;;6.30;99.90;;;;;;5053649;28;20052;-72
2023/04/13 02:16:05;;;;;;;9.13;1.35;;;6.30;99.90;;;;;;5053278;28;20292;-73
2023/04/13 02:18:32;;;;;;;9.18;1.05;;;6.20;99.90;;;;;;5052001;28;20057;-73
2023/04/13 02:20:59;;;;;;;;;;;6.30;99.90;;;;;;5053317;28;20044;-73
2023/04/13 02:23:25;;;;;;;5.75;1.13;;;6.30;99.90;;;;;;5051936;28;19975;-71
2023/04/13 02:25:51;;;;;;;9.00;1.27;;;6.20;99.90;;;;;;5051789;28;20052;-72
2023/04/13 02:28:17;;;;;;;6.00;1.10;;;6.30;99.90;;;;;;5052145;28;20045;-73
2023/04/13 02:30:43;;;;;;;8.10;1.27;;;6.20;99.90;;;;;;5035204;28;20060;-71
2023/04/13 02:33:09;;;;;;;5.40;1.50;;;6.20;99.90;;;;;;5052724;28;20033;-73
2023/04/13 02:35:37;;;;;;;4.70;0.90;;;6.20;99.90;;;;;;5052308;28;20147;-74
2023/04/13 02:38:05;;;;;;;9.05;1.23;;;6.20;99.90;;;;;;5051453;28;20124;-72
2023/04/13 02:40:31;;;;;;;8.77;1.30;;;6.20;99.90;;;;;;5019129;28;20428;-72
2023/04/13 02:42:58;;;;;;;10.13;1.70;;;6.20;99.90;;;;;;5053435;28;20041;-71
2023/04/13 02:45:25;;;;;;;5.47;1.20;;;6.10;99.90;;;;;;5052723;28;20053;-73
2023/04/13 02:47:51;;;;;;;8.05;1.60;;;6.10;99.90;;;;;;5051410;28;20111;-71
2023/04/13 02:50:17;;;;;;;5.20;1.60;;;6.10;99.90;;;;;;5052531;28;20048;-70
2023/04/13 02:52:43;;;;;;;5.93;1.15;;;6.10;99.90;;;;;;5055110;28;20040;-73
2023/04/13 02:55:09;;;;;;;13.10;1.95;;;6.10;99.90;;;;;;5055066;28;20084;-70
2023/04/13 02:57:34;;;;;;;8.32;1.25;;;6.10;99.90;;;;;;5055135;28;20091;-73
2023/04/13 03:00:00;;;;;;;7.80;1.50;;;6.10;99.90;;;;;;5056222;28;20053;-72
2023/04/13 03:02:28;;;;;;;8.20;1.65;;;6.00;99.90;;;;;;5054911;28;20136;-72
2023/04/13 03:04:55;;;;;;;6.55;1.75;;;6.10;99.90;;;;;;5056737;28;20048;-74
2023/04/13 03:07:21;;;;;;;7.87;1.30;;;6.10;99.90;;;;;;5056513;28;20049;-73
2023/04/13 03:09:47;;;;;;;9.57;1.40;;;6.10;99.90;;;;;;5038498;28;20457;-71
2023/04/13 03:12:13;;;;;;;6.43;1.38;;;6.10;99.90;;;;;;5038347;28;20059;-73
2023/04/13 03:14:38;;;;;;;8.57;1.20;;;6.20;99.90;;;;;;5054988;28;20076;-72
2023/04/13 03:17:06;;;;;;;8.57;1.50;;;6.20;99.90;;;;;;5056509;28;20048;-71
2023/04/13 03:19:32;;;;;;;9.07;1.77;;;6.20;99.90;;;;;;5056827;28;20153;-73
2023/04/13 03:21:57;;;;;;;10.02;2.10;;;6.20;99.90;;;;;;5056359;28;20398;-72
2023/04/13 03:24:26;;;;;;;9.45;1.60;;;6.20;99.90;;;;;;5055939;28;20052;-73
2023/04/13 03:26:56;;;;;;;8.57;1.77;;;6.20;99.90;;;;;;5054696;28;20041;-73
2023/04/13 03:29:25;;;;;;;6.88;1.65;;;6.20;99.90;;;;;;5038149;28;20131;-72
2023/04/13 03:31:51;;;;;;;8.30;1.52;;;6.20;99.90;;;;;;5056420;28;20079;-72
2023/04/13 03:34:17;;;;;;;5.82;1.92;;;6.20;99.90;;;;;;5054550;28;20385;-72
2023/04/13 03:36:43;;;;;;;9.88;1.73;;;6.20;99.90;;;;;;5055570;28;20037;-72
2023/04/13 03:39:09;;;;;;;6.82;1.98;;;6.20;99.90;;;;;;5055010;28;20123;-72
2023/04/13 03:41:35;;;;;;;7.88;2.20;;;6.20;99.90;;;;;;5037851;28;20492;-75
2023/04/13 03:44:01;;;;;;;11.73;2.30;;;6.30;99.90;;;;;;5054130;28;20099;-72
2023/04/13 03:46:26;;;;;;;9.23;2.08;;;6.30;99.90;;;;;;5037809;28;20045;-72
2023/04/13 03:48:52;;;;;;;9.63;2.20;;;6.30;99.90;;;;;;5055281;28;20084;-72
2023/04/13 03:51:18;;;;;;;8.77;2.17;;;6.30;99.90;;;;;;5037667;28;20067;-73
2023/04/13 03:53:44;;;;;;;9.50;2.20;;;6.30;99.90;;;;;;5037188;28;20045;-72
2023/04/13 03:56:10;;;;;;;15.77;2.65;;;6.30;99.90;;;;;;5054382;28;20056;-72
2023/04/13 03:58:36;;;;;;;6.75;2.38;;;6.40;99.90;;;;;;5037567;28;20435;-74
2023/04/13 04:01:01;;;;;;;11.02;2.30;;;6.40;99.90;;;;;;5055038;28;20040;-70
2023/04/13 04:03:27;;;;;;;9.07;2.70;;;6.40;99.90;;;;;;5055010;28;20400;-70
2023/04/13 04:05:53;;;;;;;11.45;2.65;;;6.40;99.90;;;;;;5055530;28;20060;-71
2023/04/13 04:08:19;;;;;;;11.57;3.15;;;6.40;99.90;;;;;;5053947;28;20074;-70
2023/04/13 04:10:45;;;;;;;9.48;2.22;;;6.40;99.90;;;;;;5054430;28;20473;-71
2023/04/13 04:13:10;;;;;;;9.88;2.17;;;6.40;99.90;;;;;;5053722;28;20048;-71
2023/04/13 04:15:36;;;;;;;5.97;2.05;;;6.40;99.90;;;;;;5055668;28;20063;-70
2023/04/13 04:18:02;;;;;;;11.23;2.50;;;6.40;99.90;;;;;;5053550;28;20102;-73
2023/04/13 04:20:27;;;;;;;10.38;2.63;;;6.40;99.90;;;;;;5036991;28;20049;-71
2023/04/13 04:22:54;;;;;;;8.30;2.60;;;6.20;99.90;;;;;;5055235;28;20041;-73
2023/04/13 04:25:22;;;;;;;6.63;1.85;;;6.20;99.90;;;;;;5020597;28;20049;-72
2023/04/13 04:27:49;;;;;;;8.93;2.17;;;6.10;99.90;;;;;;5037394;28;20044;-75
2023/04/13 04:30:17;;;;;;;7.93;2.42;;;6.00;99.90;;;;;;5053765;28;20052;-72
2023/04/13 04:32:43;;;;;;;9.75;2.40;;;6.00;99.90;;;;;;5054368;28;20132;-72
2023/04/13 04:35:15;;;;;;;10.05;2.80;;;5.90;99.90;;;;;;5057887;28;20489;-74
2023/04/13 04:37:41;;;;;;;8.05;2.83;;;5.80;99.90;;;;;;5053643;28;20124;-73
2023/04/13 04:40:11;;;;;;;9.25;2.95;;;5.70;99.90;;;;;;5054473;28;20127;-73
2023/04/13 04:42:38;;;;;;;9.95;2.65;;;5.70;99.90;;;;;;5053558;28;20469;-73
2023/04/13 04:45:05;;;;;;;8.10;2.40;;;5.60;99.90;;;;;;5053020;28;20057;-73
2023/04/13 04:47:31;;;;;;;10.30;2.85;;;5.50;99.90;;;;;;5054281;28;20052;-73
2023/04/13 04:49:58;;;;;;;10.85;2.80;;;5.50;99.90;;;;;;5053051;28;20052;-71
2023/04/13 04:52:26;;;;;;;8.43;2.40;;;5.50;99.90;;;;;;5053880;28;20041;-73
2023/04/13 04:54:52;;;;;;;9.30;2.20;;;5.40;99.90;;;;;;5054027;28;20048;-72
2023/04/13 04:57:18;;;;;;;12.25;3.33;;;5.40;99.90;;;;;;5054554;28;20128;-72
2023/04/13 04:59:44;;;;;;;8.18;2.30;;;5.30;99.90;;;;;;5054033;28;20055;-72
2023/04/13 05:02:11;;;;;;;6.80;2.10;;;5.20;99.90;;;;;;5052650;28;20452;-73
2023/04/13 05:04:38;;;;;;;8.50;2.30;;;5.30;99.90;;;;;;5053879;28;20052;-73
2023/04/13 05:07:04;;;;;;;10.52;2.55;;;5.30;99.90;;;;;;5036406;28;20163;-75
2023/04/13 05:09:30;;;;;;;12.52;2.22;;;5.30;99.90;;;;;;5052773;28;20076;-72
2023/04/13 05:11:56;;;;;;;10.95;2.78;;;5.30;99.90;;;;;;5036677;28;20053;-74
2023/04/13 05:14:22;;;;;;;12.48;2.95;;;5.30;99.90;;;;;;5052329;28;20076;-74
2023/04/13 05:16:49;;;;;;;10.30;2.80;;;5.30;99.90;;;;;;5052651;28;20128;-73
2023/04/13 05:19:15;;;;;;;18.23;2.75;;;5.40;99.90;;;;;;5036168;28;20068;-72
2023/04/13 05:21:40;;;;;;;11.05;3.00;;;5.40;99.90;;;;;;5036557;28;20385;-73
2023/04/13 05:24:06;;;;;;;13.40;3.30;;;5.50;99.90;;;;;;5053760;28;20397;-72
2023/04/13 05:26:33;;;;;;;14.10;4.47;;;5.50;99.90;;;;;;5053857;28;20033;-72
2023/04/13 05:28:59;;;;;;;14.57;3.50;;;5.60;99.90;;;;;;5053582;28;20068;-73
2023/04/13 05:31:24;;;;;;;15.80;3.85;;;5.60;99.90;;;;;;5053280;28;20044;-72
2023/04/13 05:33:50;;;;;;;12.45;3.05;;;5.70;99.90;;;;;;5052245;28;20060;-72
2023/04/13 05:36:16;;;;;;;15.82;3.65;;;5.80;99.90;;;;;;5053451;28;20053;-73
2023/04/13 05:38:42;;;;;;;12.52;3.58;;;5.90;99.90;;;;;;5035573;28;20502;-73
2023/04/13 05:41:09;;;;;;;17.80;4.22;;;6.00;99.90;;;;;;5052460;28;20515;-72
2023/04/13 05:43:35;;;;;;;17.08;4.22;;;6.10;99.90;;;;;;5053517;28;20036;-70
2023/04/13 05:46:01;;;;;;;20.63;4.85;;;6.20;99.90;;;;;;5021539;28;20143;-72
2023/04/13 05:48:27;;;;;;;13.65;4.60;;;6.30;99.90;;;;;;5053819;28;20052;-72
2023/04/13 05:50:57;;;;;;;16.83;4.72;;;6.30;99.90;;;;;;5052970;28;20102;-72
2023/04/13 05:53:22;;;;;;;18.63;4.75;;;6.40;99.90;;;;;;5036495;28;20045;-70
2023/04/13 05:55:48;;;;;;;16.20;4.22;;;6.40;99.90;;;;;;5053019;28;20128;-71
2023/04/13 05:58:14;;;;;;;21.08;4.55;;;6.50;99.90;;;;;;5053116;28;20044;-72
2023/04/13 06:00:40;;;;;;;21.02;5.35;;;6.60;99.90;;;;;;5053561;28;20045;-72
2023/04/13 06:03:06;;;;;;;15.25;4.80;;;6.80;99.90;;;;;;5051595;28;20068;-72
2023/04/13 06:05:34;;;;;;;20.55;4.88;;;6.90;99.90;;;;;;5052091;28;20506;-71
2023/04/13 06:08:01;;;;;;;12.65;3.90;;;7.00;99.90;;;;;;5051741;28;20045;-73
2023/04/13 06:10:26;;;;;;;14.95;3.55;;;7.10;99.90;;;;;;5051858;28;20377;-72
2023/04/13 06:12:52;;;;;;;11.90;3.35;;;7.20;99.90;;;;;;5052825;28;20048;-73
2023/04/13 06:15:19;;;;;;;12.98;4.32;;;7.20;99.90;;;;;;5053807;28;20407;-71
2023/04/13 06:17:45;;;;;;;11.05;3.63;;;7.10;99.90;;;;;;5052801;28;20041;-72
2023/04/13 06:20:11;;;;;;;16.83;3.83;;;7.00;99.90;;;;;;5052313;28;20128;-71
2023/04/13 06:22:37;;;;;;;12.70;3.30;;;7.00;99.90;;;;;;5052565;28;20495;-71
2023/04/13 06:25:03;;;;;;;16.25;4.25;;;7.00;99.90;;;;;;5053854;28;20120;-72
2023/04/13 06:27:32;;;;;;;13.50;3.95;;;7.10;99.90;;;;;;5039283;28;20061;-73
2023/04/13 06:29:58;;;;;;;10.88;3.70;;;7.10;99.90;;;;;;5056032;28;20068;-73
2023/04/13 06:32:24;;;;;;;12.07;3.35;;;7.20;99.90;;;;;;5055569;28;20098;-73
2023/04/13 06:34:50;;;;;;;11.77;3.50;;;7.30;99.90;;;;;;5056648;28;20053;-72
2023/04/13 06:37:16;;;;;;;20.00;4.00;;;7.40;99.90;;;;;;5055412;28;20385;-72
2023/04/13 06:39:42;;;;;;;15.93;3.43;;;7.60;99.90;;;;;;5055358;28;20045;-73
2023/04/13 06:42:08;;;;;;;11.18;4.18;;;7.60;99.90;;;;;;5057379;28;20047;-73
2023/04/13 06:44:33;;;;;;;14.43;4.03;;;7.70;99.90;;;;;;5072216;28;20500;-72
2023/04/13 06:46:59;;;;;;;12.20;3.75;;;7.80;99.90;;;;;;5056733;28;20453;-72
2023/04/13 06:49:26;;;;;;;15.65;4.47;;;8.00;99.90;;;;;;5056806;28;20059;-72
2023/04/13 06:51:52;;;;;;;20.38;4.07;;;8.00;99.90;;;;;;5056863;28;20049;-74
2023/04/13 06:54:18;;;;;;;13.52;3.53;;;7.90;99.90;;;;;;5042709;28;20075;-75
2023/04/13 06:56:44;;;;;;;14.75;3.80;;;7.90;99.90;;;;;;5039398;28;20397;-71
2023/04/13 06:59:11;;;;;;;14.35;3.20;;;8.00;99.90;;;;;;5055309;28;20068;-72
2023/04/13 07:01:37;;;;;;;12.32;3.58;;;7.90;99.90;;;;;;5056073;28;20124;-72
2023/04/13 07:04:05;;;;;;;13.20;2.97;;;8.10;99.90;;;;;;5055375;28;20190;-73
2023/04/13 07:06:32;;;;;;;14.93;2.95;;;8.10;99.90;;;;;;5056601;28;20366;-74
2023/04/13 07:08:58;;;;;;;10.85;2.85;;;8.10;99.90;;;;;;5055344;28;20397;-71
2023/04/13 07:11:26;;;;;;;15.90;2.92;;;8.10;99.90;;;;;;5039407;28;20109;-73
2023/04/13 07:13:52;;;;;;;14.18;3.20;;;8.10;99.90;;;;;;5056119;28;20496;-72
2023/04/13 07:16:18;;;;;;;11.75;3.40;;;8.10;99.90;;;;;;5038571;28;20088;-75
2023/04/13 07:18:43;;;;;;;15.55;3.60;;;8.10;99.90;;;;;;5054790;28;20132;-72
2023/04/13 07:21:09;;;;;;;11.38;2.97;;;8.20;99.90;;;;;;5056859;28;20052;-73
2023/04/13 07:23:35;;;;;;;15.70;3.20;;;8.30;99.90;;;;;;5054991;28;20051;-73
2023/04/13 07:26:01;;;;;;;11.27;2.65;;;8.30;99.90;;;;;;5054741;28;20045;-73
2023/04/13 07:28:27;;;;;;;15.85;2.78;;;8.50;99.90;;;;;;5038830;28;20081;-73
2023/04/13 07:30:52;;;;;;;10.73;3.10;;;8.50;99.90;;;;;;5055004;28;20473;-73
2023/04/13 07:33:18;;;;;;;12.73;3.15;;;8.50;99.90;;;;;;5054595;28;20084;-73
2023/04/13 07:35:44;;;;;;;11.32;2.25;;;8.30;99.90;;;;;;5054878;28;20053;-73
2023/04/13 07:38:10;;;;;;;11.60;2.90;;;8.40;99.90;;;;;;5054356;28;20427;-74
2023/04/13 07:40:35;;;;;;;11.38;2.25;;;8.40;99.90;;;;;;5054446;28;20107;-74
2023/04/13 07:43:01;;;;;;;8.10;1.60;;;8.50;99.90;;;;;;5038599;28;20049;-73
2023/04/13 07:45:30;;;;;;;10.35;1.70;;;8.60;99.90;;;;;;5055470;28;20125;-73
2023/04/13 07:47:56;;;;;;;6.93;1.70;;;8.60;99.90;;;;;;5054272;28;20037;-74
2023/04/13 07:50:22;;;;;;;4.38;1.38;;;8.70;99.90;;;;;;5037450;28;20053;-73
2023/04/13 07:52:48;;;;;;;6.68;1.60;;;8.70;99.90;;;;;;5054142;28;20052;-73
2023/04/13 07:55:14;;;;;;;7.82;1.60;;;8.60;99.90;;;;;;5055217;28;20044;-73
2023/04/13 07:57:40;;;;;;;12.95;1.55;;;8.80;99.90;;;;;;5054121;28;20045;-73
2023/04/13 08:00:07;;;;;;;9.02;1.90;;;8.90;99.90;;;;;;5055183;28;20064;-74
2023/04/13 08:02:33;;;;;;;6.60;2.17;;;9.00;99.90;;;;;;5056185;28;20118;-74
2023/04/13 08:04:58;;;;;;;6.60;1.60;;;9.10;99.90;;;;;;5039970;28;20500;-73
2023/04/13 08:07:25;;;;;;;8.90;1.98;;;9.10;99.90;;;;;;5071600;28;20060;-73
2023/04/13 08:09:51;;;;;;;10.98;2.10;;;9.20;99.90;;;;;;5037596;28;20496;-72
2023/04/13 08:12:17;;;;;;;6.38;1.98;;;9.20;99.90;;;;;;5053889;28;20506;-73
2023/04/13 08:14:43;;;;;;;4.90;1.33;;;9.30;99.90;;;;;;5055141;28;20037;-73
2023/04/13 08:17:10;;;;;;;5.97;1.25;;;9.40;99.90;;;;;;5053603;28;20040;-72
2023/04/13 08:19:36;;;;;;;8.77;2.03;;;9.50;99.90;;;;;;5055073;28;20040;-75
2023/04/13 08:22:01;;;;;;;5.40;1.45;;;9.30;99.90;;;;;;5053678;28;20055;-75
2023/04/13 08:24:28;;;;;;;5.85;1.63;;;9.30;99.90;;;;;;5037209;28;20136;-74
2023/04/13 08:26:56;;;;;;;10.55;2.25;;;9.10;99.90;;;;;;5054394;28;20044;-74
2023/04/13 08:29:23;;;;;;;6.32;2.28;;;9.20;99.90;;;;;;5037601;28;20049;-73
2023/04/13 08:31:49;;;;;;;7.03;2.40;;;9.00;99.90;;;;;;5054843;28;20092;-76
2023/04/13 08:34:19;;;;;;;8.82;2.70;;;9.00;99.90;;;;;;5053474;28;20076;-73
2023/04/13 08:36:45;;;;;;;9.80;3.50;;;8.80;99.90;;;;;;5053594;28;20127;-73
2023/04/13 08:39:12;;;;;;;9.65;3.72;;;8.40;99.90;;;;;;5054457;28;20092;-72
2023/04/13 08:41:39;;;;;;;9.77;3.50;;;8.60;99.90;;;;;;5053446;28;20155;-75
2023/04/13 08:44:06;;;;;;;11.32;3.47;;;8.60;99.90;;;;;;5053248;28;20052;-74
2023/04/13 08:46:35;;;;;;;13.40;3.53;;;8.50;99.90;;;;;;5054503;28;20053;-74
2023/04/13 08:49:02;;;;;;;10.00;3.05;;;8.60;99.90;;;;;;5019859;28;20456;-73
2023/04/13 08:51:30;;;;;;;12.23;3.10;;;8.60;99.90;;;;;;5053103;28;20382;-74
2023/04/13 08:53:58;;;;;;;7.53;2.63;;;8.50;99.90;;;;;;5054203;28;20087;-73
2023/04/13 08:56:25;;;;;;;6.95;2.03;;;8.40;99.90;;;;;;5052847;28;20044;-73
2023/04/13 08:58:52;;;;;;;;;;;8.10;99.90;;;;;;5053228;28;20179;-72
2023/04/13 09:01:19;;;;;;;;;;;7.70;99.90;;;;;;5087926;28;19940;-73
2023/04/13 09:03:53;;;;;;;;;;;7.60;99.90;;;;;;5054504;28;19954;-71
2023/04/13 09:06:33;;;;;;;2.50;0.35;;;7.30;99.90;;;;;;5054315;28;19921;-72
2023/04/13 09:09:04;;;;;;;3.15;0.40;;;6.90;99.90;;;;;;5054824;28;20390;-74
2023/04/13 09:11:31;;;;;;;2.92;0.35;;;6.80;99.90;;;;;;5057882;28;20092;-72
2023/04/13 09:13:57;;;;;;;3.97;0.63;;;6.90;99.90;;;;;;5053556;28;20477;-74
2023/04/13 09:16:22;;;;;;;2.67;0.40;;;7.00;99.90;;;;;;5052948;28;20053;-75
2023/04/13 09:18:54;;;;;;;3.70;0.50;;;7.00;99.90;;;;;;5052661;28;20076;-72
2023/04/13 09:21:35;;;;;;;5.40;0.60;;;6.90;99.90;;;;;;5054043;28;20106;-74
2023/04/13 09:24:01;;;;;;;3.05;0.52;;;6.90;99.90;;;;;;5054113;28;20539;-73
2023/04/13 09:26:37;;;;;;;4.22;1.15;;;7.10;99.90;;;;;;5052659;28;20049;-73
2023/04/13 09:29:04;;;;;;;8.10;1.30;;;7.60;99.90;;;;;;5038391;28;20041;-73
2023/04/13 09:31:33;;;;;;;7.97;0.77;;;8.10;99.90;;;;;;5053022;28;20044;-73
2023/04/13 09:33:59;;;;;;;8.85;1.00;;;8.40;99.90;;;;;;5054285;28;20053;-72
2023/04/13 09:36:27;;;;;;;10.02;1.63;;;8.60;99.90;;;;;;5020171;28;20114;-72
2023/04/13 09:38:55;;;;;;;8.63;1.27;;;8.70;99.90;;;;;;5052520;28;20382;-72
2023/04/13 09:41:49;;;;;;;7.32;1.45;;;8.80;99.90;;;;;;5035665;28;20132;-73
2023/04/13 09:44:18;;;;;;;5.90;1.00;;;8.80;99.90;;;;;;5083679;28;20105;-74
2023/04/13 09:46:58;;;;;;;5.82;0.50;;;8.90;99.90;;;;;;5052415;28;20044;-75
2023/04/13 09:49:25;;;;;;;11.73;0.60;;;8.70;99.90;;;;;;5035771;28;20051;-75
2023/04/13 09:51:51;;;;;;;3.55;0.52;;;8.40;99.90;;;;;;5052418;28;20056;-74
2023/04/13 09:54:21;;;;;;;6.97;1.00;;;8.50;99.90;;;;;;5053255;28;20102;-73
2023/04/13 09:56:52;;;;;;;7.43;0.63;;;8.50;99.90;;;;;;5036035;28;20044;-71
2023/04/13 09:59:20;;;;;;;5.32;0.98;;;8.60;99.90;;;;;;5054495;28;20088;-73
2023/04/13 10:01:47;;;;;;;6.55;0.90;;;8.70;99.90;;;;;;5059613;28;20060;-73
2023/04/13 10:04:15;;;;;;;6.97;1.38;;;8.90;99.90;;;;;;5059469;28;20045;-74
2023/04/13 10:06:45;;;;;;;7.93;0.90;;;9.20;99.90;;;;;;5059583;28;20053;-73
2023/04/13 10:09:12;;;;;;;8.35;0.93;;;9.30;99.90;;;;;;5058534;28;20055;-73
2023/04/13 10:11:44;;;;;;;7.93;1.23;;;9.60;99.90;;;;;;5059069;28;20048;-72
2023/04/13 10:14:20;;;;;;;11.60;1.73;;;9.90;99.90;;;;;;5060166;28;20114;-74
2023/04/13 10:17:00;;;;;;;15.32;1.38;;;10.10;99.90;;;;;;5059747;28;20067;-72
2023/04/13 10:19:31;;;;;;;13.25;1.23;;;10.10;99.90;;;;;;5060700;28;20049;-74
2023/04/13 10:21:58;;;;;;;7.40;1.13;;;10.00;99.90;;;;;;5060359;28;20045;-72
2023/04/13 10:24:24;;;;;;;5.88;0.65;;;10.10;99.90;;;;;;5058725;28;20128;-73
2023/04/13 10:26:57;;;;;;;10.00;1.38;;;10.20;99.90;;;;;;5057609;28;20057;-74
2023/04/13 10:29:31;;;;;;;8.57;0.90;;;10.40;99.90;;;;;;5058942;28;20059;-75
2023/04/13 10:32:02;;;;;;;11.57;1.45;;;10.40;99.90;;;;;;5042263;28;20052;-74
2023/04/13 10:34:30;;;;;;;8.75;0.90;;;10.40;99.90;;;;;;5058467;28;20132;-74
2023/04/13 10:37:02;;;;;;;12.70;1.40;;;10.70;99.90;;;;;;5059469;28;20037;-72
2023/04/13 10:39:31;;;;;;;13.00;1.00;;;11.00;99.90;;;;;;5059618;28;20112;-75
2023/04/13 10:42:06;;;;;;;7.68;0.95;;;11.10;99.90;;;;;;5060487;28;20105;-74
2023/04/13 10:44:46;;;;;;;15.77;1.52;;;11.20;99.90;;;;;;5058640;28;20132;-73
2023/04/13 10:47:13;;;;;;;13.15;1.30;;;11.30;99.90;;;;;;5058484;28;20045;-75
2023/04/13 10:49:40;;;;;;;10.73;1.75;;;11.20;99.90;;;;;;5058355;28;20044;-74
2023/04/13 10:52:07;;;;;;;15.32;1.38;;;11.20;99.90;;;;;;5059056;28;20440;-74
2023/04/13 10:54:38;;;;;;;13.80;1.13;;;11.30;99.90;;;;;;5058260;28;20053;-73
2023/04/13 10:57:05;;;;;;;13.95;0.95;;;11.50;99.90;;;;;;5058136;28;20120;-74
2023/04/13 10:59:51;;;;;;;11.50;0.93;;;11.40;99.90;;;;;;5058195;28;20125;-74
2023/04/13 11:02:17;;;;;;;10.77;1.98;;;11.40;99.90;;;;;;5058513;28;20379;-75
2023/04/13 11:04:47;;;;;;;10.10;0.98;;;11.40;99.90;;;;;;5059428;28;20401;-74
2023/04/13 11:07:16;;;;;;;8.75;0.70;;;11.50;99.90;;;;;;5059926;28;20041;-73
2023/04/13 11:09:44;;;;;;;11.73;1.20;;;11.50;99.90;;;;;;5042238;28;20044;-73
2023/04/13 11:12:15;;;;;;;12.05;1.13;;;11.40;99.90;;;;;;5038754;28;20048;-73
2023/04/13 11:14:47;;;;;;;10.07;0.93;;;11.00;99.90;;;;;;5056496;28;20057;-73
2023/04/13 11:17:14;;;;;;;12.25;1.38;;;11.00;99.90;;;;;;5056073;28;20045;-74
2023/04/13 11:19:53;;;;;;;11.00;0.98;;;10.90;99.90;;;;;;5057143;28;20052;-75
2023/04/13 11:22:27;;;;;;;11.55;0.95;;;11.10;99.90;;;;;;5055967;28;20045;-72
2023/04/13 11:25:07;;;;;;;15.10;1.25;;;11.20;99.90;;;;;;5058343;28;20044;-74
2023/04/13 11:27:33;;;;;;;7.82;0.90;;;11.20;99.90;;;;;;5045616;28;20107;-72
2023/04/13 11:30:07;;;;;;;11.02;1.20;;;11.40;99.90;;;;;;5060321;28;20070;-73
2023/04/13 11:32:35;;;;;;;11.20;1.52;;;11.50;99.90;;;;;;5056402;28;20123;-73
2023/04/13 11:35:13;;;;;;;13.95;1.23;;;11.70;99.90;;;;;;5038784;28;20063;-71
2023/04/13 11:37:47;;;;;;;9.55;1.00;;;11.70;99.90;;;;;;5038598;28;20045;-73
2023/04/13 11:40:20;;;;;;;13.05;1.17;;;12.00;99.90;;;;;;5056794;28;20041;-73
2023/04/13 11:42:49;;;;;;;12.32;1.30;;;12.10;99.90;;;;;;5054675;28;20104;-71
2023/04/13 11:45:15;;;;;;;8.27;0.73;;;12.10;99.90;;;;;;5055324;28;20041;-75
2023/04/13 11:47:42;;;;;;;9.70;1.05;;;11.90;99.90;;;;;;5039168;28;20504;-73
2023/04/13 11:50:09;;;;;;;15.10;1.13;;;11.90;99.90;;;;;;5022337;28;20052;-73
2023/04/13 11:52:36;;;;;;;11.40;1.02;;;11.70;99.90;;;;;;5055590;28;20053;-73
2023/04/13 11:55:03;;;;;;;5.85;0.75;;;11.30;99.90;;;;;;5056327;28;20135;-73
2023/04/13 11:57:31;;;;;;;9.52;0.80;;;11.40;99.90;;;;;;5054865;28;20041;-73
2023/04/13 11:59:57;;;;;;;15.40;1.17;;;11.20;99.90;;;;;;5056671;28;20049;-73
2023/04/13 12:02:27;;;;;;;9.63;0.88;;;11.10;99.90;;;;;;5037755;28;20128;-74
2023/04/13 12:04:53;;;;;;;12.30;0.93;;;10.90;99.90;;;;;;5038072;28;20591;-75
2023/04/13 12:07:19;;;;;;;8.65;1.00;;;10.80;99.90;;;;;;5056105;28;20071;-73
2023/04/13 12:09:46;;;;;;;11.63;0.88;;;10.70;99.90;;;;;;5038906;28;20083;-74
2023/04/13 12:12:21;;;;;;;5.97;0.65;;;10.80;99.90;;;;;;5055424;28;20043;-74
2023/04/13 12:14:57;;;;;;;11.82;0.93;;;11.00;99.90;;;;;;5038609;28;20041;-73
2023/04/13 12:17:34;;;;;;;7.45;0.60;;;11.10;99.90;;;;;;5055901;28;20381;-74
2023/04/13 12:20:00;;;;;;;8.93;0.90;;;11.00;99.90;;;;;;5055453;28;20055;-74
2023/04/13 12:22:37;;;;;;;11.77;1.02;;;10.70;99.90;;;;;;5054122;28;20048;-73
2023/04/13 12:25:22;;;;;;;15.57;0.93;;;10.70;99.90;;;;;;5055324;28;20041;-74
2023/04/13 12:27:50;;;;;;;11.10;0.65;;;10.70;99.90;;;;;;5037301;28;20487;-74
2023/04/13 12:30:17;;;;;;;15.23;0.90;;;10.90;99.90;;;;;;5054655;28;20063;-73
2023/04/13 12:32:44;;;;;;;;;;;11.00;99.90;;;;;;5055412;28;20052;-73
2023/04/13 12:35:11;;;;;;;13.48;1.30;;;11.40;99.90;;;;;;5058755;28;19921;-74
2023/04/13 12:37:43;;;;;;;10.13;0.70;;;11.50;99.90;;;;;;5061245;28;20049;-71
2023/04/13 12:40:11;;;;;;;12.77;0.90;;;11.50;99.90;;;;;;5064218;28;20075;-74
2023/04/13 12:42:41;;;;;;;15.48;0.85;;;11.50;99.90;;;;;;5054029;28;20049;-73
2023/04/13 12:45:07;;;;;;;10.73;0.70;;;11.60;99.90;;;;;;5037537;28;20470;-73
2023/04/13 12:47:34;;;;;;;15.07;1.00;;;11.60;99.90;;;;;;5070235;28;20037;-72
2023/04/13 12:49:59;;;;;;;9.17;1.00;;;11.90;99.90;;;;;;5037377;28;20044;-74
2023/04/13 12:52:31;;;;;;;13.30;1.17;;;11.80;99.90;;;;;;5054014;28;20744;-73
2023/04/13 12:55:01;;;;;;;11.85;1.17;;;11.90;99.90;;;;;;5055038;28;20049;-73
2023/04/13 12:57:28;;;;;;;13.50;1.05;;;11.80;99.90;;;;;;5053364;28;20090;-75